createdAt,value
2023-01-13T00:01:21.733Z,53.41
2023-01-13T00:03:48.875Z,52.92
2023-01-13T00:06:17.720Z,54.32
2023-01-13T00:08:44.618Z,54.01
2023-01-13T00:11:11.339Z,52.84
2023-01-13T00:13:38.842Z,53.20
2023-01-13T00:16:08.149Z,52.69
2023-01-13T00:18:36.952Z,52.91
2023-01-13T00:21:07.826Z,53.38
2023-01-13T00:23:35.436Z,53.22
2023-01-13T00:26:05.290Z,52.79
2023-01-13T00:28:32.504Z,52.10
2023-01-13T00:31:11.659Z,52.73
2023-01-13T00:33:39.239Z,52.90
2023-01-13T00:36:07.611Z,53.20
2023-01-13T00:38:35.972Z,54.05
2023-01-13T00:41:07.678Z,53.55
2023-01-13T00:43:35.985Z,52.15
2023-01-13T00:46:03.881Z,50.92
2023-01-13T00:48:32.539Z,51.62
2023-01-13T00:51:08.016Z,52.39
2023-01-13T00:53:37.386Z,52.48
2023-01-13T00:56:05.463Z,51.64
2023-01-13T00:58:34.086Z,51.81
2023-01-13T01:01:02.336Z,50.90
2023-01-13T01:03:29.739Z,51.49
2023-01-13T01:05:57.567Z,52.19
2023-01-13T01:08:24.274Z,51.73
2023-01-13T01:11:00.867Z,51.77
2023-01-13T01:13:27.674Z,51.44
2023-01-13T01:15:54.362Z,51.75
2023-01-13T01:18:21.107Z,51.96
2023-01-13T01:20:47.790Z,52.08
2023-01-13T01:23:14.687Z,51.47
2023-01-13T01:25:41.430Z,51.12
2023-01-13T01:28:08.132Z,51.88
2023-01-13T01:30:34.756Z,51.24
2023-01-13T01:33:03.218Z,51.92
2023-01-13T01:35:29.990Z,51.84
2023-01-13T01:37:56.829Z,50.80
2023-01-13T01:40:23.543Z,50.67
2023-01-13T01:43:08.417Z,50.64
2023-01-13T01:45:35.375Z,50.52
2023-01-13T01:48:06.037Z,50.74
2023-01-13T01:50:33.583Z,51.34
2023-01-13T01:53:10.243Z,50.67
2023-01-13T01:55:38.276Z,51.17
2023-01-13T01:58:15.815Z,51.22
2023-01-13T02:00:42.965Z,51.04
2023-01-13T02:03:11.061Z,50.82
2023-01-13T02:05:38.973Z,51.53
2023-01-13T02:08:07.985Z,50.44
2023-01-13T02:10:35.049Z,50.92
2023-01-13T02:13:06.328Z,51.34
2023-01-13T02:15:43.092Z,51.86
2023-01-13T02:18:31.521Z,51.93
2023-01-13T02:21:22.695Z,51.61
2023-01-13T02:24:32.960Z,52.44
2023-01-13T02:27:11.869Z,51.49
2023-01-13T02:30:19.389Z,51.55
2023-01-13T02:33:04.788Z,52.47
2023-01-13T02:35:37.412Z,53.07
2023-01-13T02:38:05.959Z,51.68
2023-01-13T02:40:41.363Z,51.83
2023-01-13T02:43:33.289Z,52.53
2023-01-13T02:46:15.771Z,52.51
2023-01-13T02:48:45.608Z,52.03
2023-01-13T02:51:16.100Z,52.14
2023-01-13T02:54:18.214Z,51.60
2023-01-13T02:56:48.727Z,53.02
2023-01-13T02:59:15.734Z,51.74
2023-01-13T03:01:43.340Z,52.18
2023-01-13T03:04:34.539Z,51.84
2023-01-13T03:07:21.216Z,52.59
2023-01-13T03:10:17.732Z,52.19
2023-01-13T03:12:48.681Z,52.04
2023-01-13T03:15:40.411Z,52.12
2023-01-13T03:18:19.047Z,52.23
2023-01-13T03:21:01.473Z,53.08
2023-01-13T03:23:51.930Z,53.87
2023-01-13T03:26:44.104Z,52.31
2023-01-13T03:29:54.098Z,52.71
2023-01-13T03:32:28.760Z,53.05
2023-01-13T03:35:15.897Z,52.81
2023-01-13T03:38:18.021Z,53.15
2023-01-13T03:40:51.354Z,51.61
2023-01-13T03:43:51.236Z,52.95
2023-01-13T03:46:26.794Z,51.82
2023-01-13T03:48:58.099Z,52.35
2023-01-13T03:51:29.338Z,52.43
2023-01-13T03:54:01.337Z,52.09
2023-01-13T03:56:42.630Z,53.68
2023-01-13T03:59:16.756Z,52.66
2023-01-13T04:01:46.426Z,53.17
2023-01-13T04:04:27.033Z,52.16
2023-01-13T04:07:00.242Z,51.68
2023-01-13T04:09:52.694Z,52.37
2023-01-13T04:12:54.774Z,52.00
2023-01-13T04:15:24.891Z,52.69
2023-01-13T04:17:52.103Z,52.02
2023-01-13T04:20:19.110Z,52.12
2023-01-13T04:22:45.834Z,52.34
2023-01-13T04:25:12.924Z,52.92
2023-01-13T04:27:39.570Z,52.68
2023-01-13T04:30:06.991Z,53.50
2023-01-13T04:32:33.849Z,51.96
2023-01-13T04:35:00.603Z,51.51
2023-01-13T04:37:27.519Z,52.83
2023-01-13T04:39:54.296Z,53.25
2023-01-13T04:42:20.998Z,53.23
2023-01-13T04:44:48.040Z,52.99
2023-01-13T04:47:14.771Z,53.21
2023-01-13T04:49:41.625Z,52.52
2023-01-13T04:52:08.374Z,52.40
2023-01-13T04:54:35.239Z,54.01
2023-01-13T04:57:02.014Z,53.37
2023-01-13T04:59:28.845Z,53.39
2023-01-13T05:01:55.831Z,53.60
2023-01-13T05:04:22.705Z,51.83
2023-01-13T05:06:49.655Z,52.01
2023-01-13T05:09:16.422Z,52.05
2023-01-13T05:12:02.001Z,51.98
2023-01-13T05:14:47.396Z,52.27
2023-01-13T05:17:20.587Z,52.06
2023-01-13T05:19:47.705Z,50.97
2023-01-13T05:22:33.749Z,50.38
2023-01-13T05:25:19.074Z,50.39
2023-01-13T05:27:45.836Z,51.18
2023-01-13T05:30:12.816Z,51.21
2023-01-13T05:32:39.724Z,50.05
2023-01-13T05:35:06.636Z,49.92
2023-01-13T05:37:33.499Z,50.67
2023-01-13T05:40:18.603Z,52.35
2023-01-13T05:43:04.394Z,50.30
2023-01-13T05:45:31.754Z,51.10
2023-01-13T05:47:58.847Z,51.01
2023-01-13T05:50:25.711Z,51.59
2023-01-13T05:52:52.439Z,50.99
2023-01-13T05:55:19.380Z,50.47
2023-01-13T05:57:46.182Z,51.32
2023-01-13T06:00:13.572Z,51.17
2023-01-13T06:02:40.348Z,51.38
2023-01-13T06:05:07.859Z,51.78
2023-01-13T06:07:34.658Z,52.64
2023-01-13T06:10:01.385Z,51.42
2023-01-13T06:12:29.026Z,51.17
2023-01-13T06:14:55.749Z,51.30
2023-01-13T06:17:22.711Z,51.75
2023-01-13T06:19:49.506Z,51.40
2023-01-13T06:22:26.777Z,51.16
2023-01-13T06:24:54.515Z,52.08
2023-01-13T06:27:22.451Z,52.57
2023-01-13T06:29:49.125Z,53.07
2023-01-13T06:32:19.596Z,52.68
2023-01-13T06:34:53.328Z,52.02
2023-01-13T06:37:25.398Z,51.19
2023-01-13T06:39:58.269Z,51.97
2023-01-13T06:42:47.319Z,51.50
2023-01-13T06:45:14.451Z,50.67
2023-01-13T06:47:41.613Z,50.43
2023-01-13T06:50:09.214Z,51.66
2023-01-13T06:52:35.943Z,52.45
2023-01-13T06:55:03.339Z,51.91
2023-01-13T06:57:30.097Z,51.27
2023-01-13T06:59:56.880Z,51.55
2023-01-13T07:02:23.852Z,51.21
2023-01-13T07:04:50.650Z,52.03
2023-01-13T07:07:17.371Z,51.39
2023-01-13T07:09:44.050Z,51.58
2023-01-13T07:12:12.021Z,53.03
2023-01-13T07:14:57.634Z,51.65
2023-01-13T07:17:25.509Z,51.92
2023-01-13T07:19:53.231Z,51.58
2023-01-13T07:22:20.168Z,52.24
2023-01-13T07:24:47.011Z,51.34
2023-01-13T07:27:13.701Z,50.73
2023-01-13T07:29:40.626Z,50.22
2023-01-13T07:32:07.997Z,51.25
2023-01-13T07:34:34.793Z,51.02
2023-01-13T07:37:01.974Z,51.08
2023-01-13T07:39:28.902Z,51.16
2023-01-13T07:42:14.142Z,50.58
2023-01-13T07:44:40.964Z,51.26
2023-01-13T07:47:10.467Z,50.03
2023-01-13T07:49:37.432Z,49.99
2023-01-13T07:54:49.734Z,49.84
2023-01-13T07:57:16.430Z,50.65
2023-01-13T07:59:43.199Z,49.47
2023-01-13T08:02:13.951Z,49.22
2023-01-13T08:04:40.946Z,49.62
2023-01-13T08:07:08.095Z,49.14
2023-01-13T08:09:34.905Z,48.65
2023-01-13T08:12:20.041Z,48.23
2023-01-13T08:14:46.834Z,48.62
2023-01-13T08:17:13.572Z,49.28
2023-01-13T08:19:40.374Z,50.17
2023-01-13T08:22:07.226Z,49.64
2023-01-13T08:24:34.026Z,49.55
2023-01-13T08:27:00.734Z,49.31
2023-01-13T08:29:27.613Z,49.44
2023-01-13T08:31:54.394Z,49.43
2023-01-13T08:34:21.295Z,49.30
2023-01-13T08:36:49.979Z,48.69
2023-01-13T08:39:16.717Z,48.24
2023-01-13T08:41:56.699Z,48.50
2023-01-13T08:44:27.443Z,47.66
2023-01-13T08:46:54.751Z,48.08
2023-01-13T08:49:22.727Z,46.90
2023-01-13T08:51:50.268Z,45.96
2023-01-13T08:54:18.126Z,45.24
2023-01-13T08:56:45.958Z,44.80
2023-01-13T08:59:18.111Z,44.13
2023-01-13T09:01:45.810Z,43.14
2023-01-13T09:04:18.508Z,44.09
2023-01-13T09:06:46.299Z,43.75
2023-01-13T09:09:13.253Z,43.91
2023-01-13T09:12:04.271Z,44.12
2023-01-13T09:14:33.180Z,43.38
2023-01-13T09:17:00.270Z,43.05
2023-01-13T09:19:28.245Z,43.74
2023-01-13T09:21:56.296Z,43.26
2023-01-13T09:24:25.412Z,42.98
2023-01-13T09:26:53.167Z,43.31
2023-01-13T09:29:20.087Z,43.45
2023-01-13T09:31:46.823Z,43.77
2023-01-13T09:34:35.951Z,43.69
2023-01-13T09:37:03.655Z,44.36
2023-01-13T09:39:30.460Z,44.46
2023-01-13T09:42:21.203Z,44.09
2023-01-13T09:44:57.781Z,44.63
2023-01-13T09:48:06.521Z,44.29
2023-01-13T09:50:52.547Z,44.82
2023-01-13T09:53:32.465Z,44.36
2023-01-13T09:56:00.033Z,44.91
2023-01-13T09:58:27.268Z,44.62
2023-01-13T10:01:21.113Z,44.31
2023-01-13T10:03:49.486Z,44.58
2023-01-13T10:06:34.883Z,44.61
2023-01-13T10:09:02.105Z,45.34
2023-01-13T10:12:13.698Z,45.97
2023-01-13T10:14:54.924Z,46.18
2023-01-13T10:17:34.134Z,45.07
2023-01-13T10:20:15.958Z,44.53
2023-01-13T10:23:06.728Z,44.20
2023-01-13T10:25:39.398Z,43.91
2023-01-13T10:28:12.059Z,44.02
2023-01-13T10:30:42.413Z,43.18
2023-01-13T10:33:18.081Z,43.40
2023-01-13T10:35:57.035Z,43.91
2023-01-13T10:38:34.370Z,43.26
2023-01-13T10:41:04.751Z,44.13
2023-01-13T10:43:31.671Z,43.90
2023-01-13T10:46:07.673Z,43.55
2023-01-13T10:49:02.467Z,43.84
2023-01-13T10:51:33.088Z,43.56
2023-01-13T10:54:14.143Z,43.47
2023-01-13T10:56:43.457Z,44.46
2023-01-13T10:59:17.548Z,44.24
2023-01-13T11:02:13.080Z,44.05
2023-01-13T11:04:55.780Z,44.19
2023-01-13T11:07:22.636Z,44.61
2023-01-13T11:10:01.369Z,44.91
2023-01-13T11:12:34.169Z,43.02
2023-01-13T11:15:07.722Z,43.58
2023-01-13T11:17:40.861Z,43.41
2023-01-13T11:20:32.501Z,44.01
2023-01-13T11:23:06.942Z,43.68
2023-01-13T11:25:43.470Z,44.50
2023-01-13T11:28:25.667Z,43.67
2023-01-13T11:31:07.007Z,43.32
2023-01-13T11:34:01.336Z,43.07
2023-01-13T11:36:40.340Z,43.62
2023-01-13T11:39:42.248Z,44.07
2023-01-13T11:42:21.403Z,43.60
2023-01-13T11:45:07.210Z,43.90
2023-01-13T11:47:36.184Z,44.49
2023-01-13T11:50:03.670Z,44.18
2023-01-13T11:52:57.306Z,43.39
2023-01-13T11:55:23.992Z,43.95
2023-01-13T11:57:50.763Z,43.20
2023-01-13T12:00:32.723Z,43.92
2023-01-13T12:03:05.582Z,43.34
2023-01-13T12:05:44.689Z,43.68
2023-01-13T12:08:18.711Z,44.23
2023-01-13T12:10:57.479Z,42.90
2023-01-13T12:13:36.955Z,43.42
2023-01-13T12:16:25.463Z,44.81
2023-01-13T12:19:30.256Z,45.36
2023-01-13T12:22:01.902Z,45.88
2023-01-13T12:24:35.208Z,45.36
2023-01-13T12:27:10.374Z,44.43
2023-01-13T12:29:38.880Z,44.52
2023-01-13T12:32:12.685Z,45.44
2023-01-13T12:34:49.796Z,44.86
2023-01-13T12:37:35.422Z,44.30
2023-01-13T12:40:59.447Z,45.09
2023-01-13T12:43:44.962Z,44.16
2023-01-13T12:46:23.555Z,44.01
2023-01-13T12:49:01.950Z,44.37
2023-01-13T12:51:35.778Z,44.96
2023-01-13T12:54:23.522Z,44.91
2023-01-13T12:56:50.704Z,44.08
2023-01-13T12:59:17.530Z,44.20
2023-01-13T13:01:46.063Z,43.49
2023-01-13T13:04:17.189Z,43.98
2023-01-13T13:06:52.559Z,43.65
2023-01-13T13:09:31.656Z,43.30
2023-01-13T13:11:58.632Z,44.11
2023-01-13T13:14:54.766Z,43.51
2023-01-13T13:17:31.689Z,43.71
2023-01-13T13:20:01.421Z,43.15
2023-01-13T13:22:28.152Z,42.65
2023-01-13T13:24:54.860Z,43.93
2023-01-13T13:27:24.304Z,44.02
2023-01-13T13:30:28.809Z,43.94
2023-01-13T13:33:39.229Z,43.47
2023-01-13T13:36:06.143Z,43.10
2023-01-13T13:39:19.220Z,42.68
2023-01-13T13:42:09.212Z,44.59
2023-01-13T13:45:06.269Z,43.33
2023-01-13T13:47:37.773Z,43.19
2023-01-13T13:50:20.837Z,43.38
2023-01-13T13:52:55.208Z,43.79
2023-01-13T13:55:25.757Z,43.67
2023-01-13T13:57:55.196Z,42.41
2023-01-13T14:00:30.190Z,43.23
2023-01-13T14:03:01.603Z,42.47
2023-01-13T14:05:29.771Z,42.40
2023-01-13T14:08:16.047Z,43.15
2023-01-13T14:10:45.120Z,42.16
2023-01-13T14:13:25.819Z,42.65
2023-01-13T14:16:04.788Z,42.58
2023-01-13T14:18:42.036Z,42.43
2023-01-13T14:21:23.607Z,42.61
2023-01-13T14:23:59.137Z,42.40
2023-01-13T14:26:29.000Z,42.50
2023-01-13T14:28:57.769Z,42.72
2023-01-13T14:31:25.107Z,42.73
2023-01-13T14:33:54.841Z,42.31
2023-01-13T14:36:33.773Z,42.82
2023-01-13T14:39:03.440Z,41.92
2023-01-13T14:41:38.014Z,42.12
2023-01-13T14:44:35.065Z,41.31
2023-01-13T14:47:05.376Z,42.01
2023-01-13T14:49:32.259Z,42.17
2023-01-13T14:52:12.563Z,42.92
2023-01-13T14:54:50.115Z,43.48
2023-01-13T14:57:29.726Z,43.80
2023-01-13T14:59:59.330Z,44.67
2023-01-13T15:02:29.186Z,44.31
2023-01-13T15:05:18.956Z,43.90
2023-01-13T15:07:59.390Z,43.45
2023-01-13T15:10:32.682Z,43.91
2023-01-13T15:13:03.662Z,43.60
2023-01-13T15:15:33.528Z,43.87
2023-01-13T15:18:01.794Z,44.33
2023-01-13T15:20:29.063Z,44.88
2023-01-13T15:22:58.683Z,45.39
2023-01-13T15:25:25.601Z,46.17
2023-01-13T15:27:53.092Z,46.19
2023-01-13T15:30:25.088Z,44.91
2023-01-13T15:32:54.947Z,45.49
2023-01-13T15:35:24.003Z,45.52
2023-01-13T15:37:51.698Z,45.71
2023-01-13T15:40:31.693Z,45.41
2023-01-13T15:43:17.120Z,44.27
2023-01-13T15:46:02.812Z,45.54
2023-01-13T15:48:32.151Z,46.25
2023-01-13T15:51:00.138Z,46.50
2023-01-13T15:53:28.015Z,45.74
2023-01-13T15:55:57.765Z,45.58
2023-01-13T15:58:28.282Z,45.62
2023-01-13T16:00:55.631Z,45.96
2023-01-13T16:03:22.688Z,46.07
2023-01-13T16:05:50.542Z,45.70
2023-01-13T16:08:19.303Z,47.90
2023-01-13T16:10:46.778Z,48.00
2023-01-13T16:13:14.886Z,46.17
2023-01-13T16:15:48.149Z,45.92
2023-01-13T16:18:24.424Z,44.76
2023-01-13T16:20:55.256Z,45.24
2023-01-13T16:23:23.194Z,46.20
2023-01-13T16:25:50.566Z,46.26
2023-01-13T16:28:24.025Z,47.55
2023-01-13T16:30:51.435Z,47.89
2023-01-13T16:33:18.278Z,48.14
2023-01-13T16:36:10.687Z,48.28
2023-01-13T16:38:32.001Z,47.01
2023-01-13T16:40:58.790Z,46.73
2023-01-13T16:43:27.856Z,47.03
2023-01-13T16:45:54.706Z,46.56
2023-01-13T16:48:22.824Z,47.41
2023-01-13T16:50:49.668Z,47.13
2023-01-13T16:53:16.767Z,46.62
2023-01-13T16:55:44.607Z,48.09
2023-01-13T16:58:20.129Z,47.25
2023-01-13T17:00:47.850Z,46.56
2023-01-13T17:03:15.698Z,47.66
2023-01-13T17:05:44.694Z,47.09
2023-01-13T17:08:17.722Z,46.52
2023-01-13T17:10:47.875Z,46.42
2023-01-13T17:13:16.652Z,46.76
2023-01-13T17:15:45.240Z,46.98
2023-01-13T17:18:13.517Z,46.51
2023-01-13T17:20:41.063Z,46.44
2023-01-13T17:23:07.913Z,48.13
2023-01-13T17:25:34.847Z,47.55
2023-01-13T17:28:01.558Z,48.00
2023-01-13T17:30:28.327Z,47.72
2023-01-13T17:32:55.158Z,46.20
2023-01-13T17:35:24.895Z,47.24
2023-01-13T17:37:53.299Z,46.89
2023-01-13T17:40:20.466Z,47.70
2023-01-13T17:42:47.327Z,46.93
2023-01-13T17:45:14.120Z,47.03
2023-01-13T17:47:41.012Z,46.59
2023-01-13T17:50:08.215Z,46.97
2023-01-13T17:52:35.182Z,46.85
2023-01-13T17:55:02.017Z,48.51
2023-01-13T17:57:28.929Z,47.58
2023-01-13T17:59:58.243Z,47.55
2023-01-13T18:02:26.225Z,47.41
2023-01-13T18:04:53.168Z,48.77
2023-01-13T18:07:20.006Z,47.20
2023-01-13T18:09:48.055Z,47.92
2023-01-13T18:12:15.056Z,47.20
2023-01-13T18:14:41.866Z,47.47
2023-01-13T18:17:08.606Z,47.30
2023-01-13T18:19:54.031Z,48.60
2023-01-13T18:22:39.228Z,48.02
2023-01-13T18:25:29.667Z,47.65
2023-01-13T18:27:57.104Z,48.00
2023-01-13T18:30:23.797Z,48.53
2023-01-13T18:32:50.509Z,49.18
2023-01-13T18:35:17.616Z,48.01
2023-01-13T18:37:44.416Z,47.28
2023-01-13T18:40:13.799Z,47.54
2023-01-13T18:42:54.596Z,47.26
2023-01-13T18:45:26.743Z,48.21
2023-01-13T18:47:55.186Z,48.22
2023-01-13T18:50:23.059Z,48.15
2023-01-13T18:52:50.309Z,47.29
2023-01-13T18:55:17.567Z,48.08
2023-01-13T18:57:44.753Z,48.00
2023-01-13T19:00:14.848Z,47.41
2023-01-13T19:02:41.740Z,46.86
2023-01-13T19:05:08.801Z,47.01
2023-01-13T19:07:36.418Z,48.21
2023-01-13T19:10:04.899Z,48.86
2023-01-13T19:12:34.064Z,48.81
2023-01-13T19:15:01.941Z,48.19
2023-01-13T19:17:34.361Z,46.98
2023-01-13T19:20:01.527Z,47.10
2023-01-13T19:22:33.490Z,46.19
2023-01-13T19:25:01.913Z,47.90
2023-01-13T19:27:29.209Z,47.53
2023-01-13T19:29:58.766Z,46.78
2023-01-13T19:32:25.950Z,46.55
2023-01-13T19:34:55.037Z,46.20
2023-01-13T19:37:22.074Z,46.61
2023-01-13T19:39:48.934Z,47.53
2023-01-13T19:42:34.512Z,46.90
2023-01-13T19:45:19.839Z,46.29
2023-01-13T19:47:47.067Z,46.18
2023-01-13T19:50:14.339Z,45.68
2023-01-13T19:52:44.654Z,46.62
2023-01-13T19:55:12.487Z,47.09
2023-01-13T19:57:40.228Z,46.70
2023-01-13T20:00:08.476Z,45.88
2023-01-13T20:02:47.824Z,46.94
2023-01-13T20:05:18.242Z,46.54
2023-01-13T20:07:45.041Z,45.72
2023-01-13T20:10:13.330Z,46.13
2023-01-13T20:12:41.684Z,47.50
2023-01-13T20:15:12.094Z,48.54
2023-01-13T20:17:40.504Z,48.42
2023-01-13T20:20:09.043Z,48.38
2023-01-13T20:22:37.515Z,47.45
2023-01-13T20:25:05.174Z,47.24
2023-01-13T20:27:31.921Z,47.47
2023-01-13T20:29:59.147Z,47.08
2023-01-13T20:32:25.925Z,46.84
2023-01-13T20:34:52.913Z,48.13
2023-01-13T20:37:19.587Z,47.10
2023-01-13T20:39:46.957Z,46.60
2023-01-13T20:42:46.398Z,46.63
2023-01-13T20:45:18.090Z,47.09
2023-01-13T20:47:45.209Z,47.24
2023-01-13T20:50:12.665Z,47.24
2023-01-13T20:52:39.449Z,46.69
2023-01-13T20:55:07.517Z,47.00
2023-01-13T20:57:35.103Z,48.58
2023-01-13T21:00:02.983Z,47.87
2023-01-13T21:02:30.163Z,47.84
2023-01-13T21:04:57.005Z,49.25
2023-01-13T21:07:24.167Z,47.71
2023-01-13T21:09:51.015Z,47.66
2023-01-13T21:12:36.194Z,47.71
2023-01-13T21:15:29.668Z,48.25
2023-01-13T21:18:15.174Z,46.74
2023-01-13T21:20:42.192Z,47.11
2023-01-13T21:23:10.935Z,48.85
2023-01-13T21:25:39.771Z,48.62
2023-01-13T21:28:07.654Z,47.87
2023-01-13T21:30:34.938Z,48.68
2023-01-13T21:33:04.009Z,47.79
2023-01-13T21:35:31.018Z,47.25
2023-01-13T21:37:57.970Z,48.06
2023-01-13T21:40:24.771Z,47.96
2023-01-13T21:43:10.319Z,49.66
2023-01-13T21:45:57.924Z,48.47
2023-01-13T21:48:24.770Z,48.21
2023-01-13T21:50:51.534Z,47.75
2023-01-13T21:53:18.457Z,47.42
2023-01-13T21:55:45.188Z,47.22
2023-01-13T21:58:14.819Z,47.31
2023-01-13T22:00:43.841Z,47.34
2023-01-13T22:03:12.536Z,47.78
2023-01-13T22:05:39.745Z,50.33
2023-01-13T22:08:07.702Z,50.75
2023-01-13T22:10:35.166Z,49.28
2023-01-13T22:13:22.894Z,49.16
2023-01-13T22:15:50.106Z,49.31
2023-01-13T22:18:18.375Z,48.34
2023-01-13T22:20:46.173Z,48.99
2023-01-13T22:23:13.063Z,49.92
2023-01-13T22:25:39.926Z,48.83
2023-01-13T22:28:09.171Z,49.10
2023-01-13T22:30:36.453Z,47.62
2023-01-13T22:33:03.596Z,47.24
2023-01-13T22:35:30.523Z,47.74
2023-01-13T22:37:58.258Z,48.27
2023-01-13T22:40:25.218Z,47.47
2023-01-13T22:42:52.025Z,47.66
2023-01-13T22:45:18.968Z,48.18
2023-01-13T22:47:46.057Z,48.61
2023-01-13T22:50:12.971Z,47.37
2023-01-13T22:52:39.841Z,47.04
2023-01-13T22:55:07.583Z,47.46
2023-01-13T22:57:46.729Z,48.24
2023-01-13T23:00:15.221Z,48.49
2023-01-13T23:02:42.493Z,48.31
2023-01-13T23:05:09.389Z,49.58
2023-01-13T23:07:36.337Z,49.18
2023-01-13T23:10:04.176Z,48.67
2023-01-13T23:12:30.959Z,48.69
2023-01-13T23:14:57.863Z,49.05
2023-01-13T23:17:24.641Z,48.35
2023-01-13T23:19:51.271Z,47.83
2023-01-13T23:22:18.237Z,47.71
2023-01-13T23:24:45.748Z,47.24
2023-01-13T23:27:12.543Z,47.43
2023-01-13T23:29:39.315Z,47.23
2023-01-13T23:32:06.280Z,46.73
2023-01-13T23:34:33.102Z,46.78
2023-01-13T23:37:00.004Z,46.89
2023-01-13T23:39:26.946Z,47.14
2023-01-13T23:41:54.506Z,47.31
2023-01-13T23:44:21.194Z,47.50
2023-01-13T23:46:47.997Z,46.86
2023-01-13T23:49:14.729Z,47.11
2023-01-13T23:51:41.564Z,46.63
2023-01-13T23:54:08.299Z,46.73
2023-01-13T23:56:39.317Z,47.07
2023-01-13T23:59:06.563Z,46.38
